Time;durP1;ratioP1;P1;durP2;ratioP2;P2;SDS_P1;SDS_P2;PMS_P1;PMS_P2;Temp;Humidity;BMP_temperature;BMP_pressure;BME280_temperature;BME280_humidity;BME280_pressure;Samples;Min_cycle;Max_cycle;Signal;HPM_P1;HPM_P2
2022/12/15 00:38:44;;;;;;;4.47;3.35;;;;;;;;;;5098550;28;20035;-30
2022/12/15 00:41:11;;;;;;;5.57;3.03;;;;;;;;;;5098431;28;20117;-30
2022/12/15 00:43:37;;;;;;;9.02;2.72;;;;;;;;;;5098117;28;20458;-31
2022/12/15 00:48:48;;;;;;;8.15;3.53;;;;;;;;;;5098313;28;20474;-31
2022/12/15 00:51:15;;;;;;;4.15;3.05;;;;;;;;;;5098230;28;20425;-31
2022/12/15 01:21:10;;;;;;;9.38;3.60;;;;;;;;;;5097595;28;20043;-30
2022/12/15 01:23:37;;;;;;;9.27;3.45;;;;;;;;;;5097283;28;20031;-31
2022/12/15 01:26:04;;;;;;;5.03;3.92;;;;;;;;;;5097879;28;20028;-31
2022/12/15 01:28:30;;;;;;;5.32;3.10;;;;;;;;;;5097209;28;20024;-32
2022/12/15 01:30:56;;;;;;;10.20;3.63;;;;;;;;;;5097479;28;20099;-31
2022/12/15 01:33:22;;;;;;;5.82;3.47;;;;;;;;;;5097110;28;20043;-31
2022/12/15 01:36:15;;;;;;;6.72;2.75;;;;;;;;;;5079382;28;20409;-31
2022/12/15 01:38:41;;;;;;;11.40;4.25;;;;;;;;;;5093518;28;20043;-31
2022/12/15 01:41:10;;;;;;;7.45;3.38;;;;;;;;;;5097193;28;20094;-31
2022/12/15 01:43:38;;;;;;;9.98;3.35;;;;;;;;;;5097165;28;20024;-31
2022/12/15 01:46:14;;;;;;;11.23;3.80;;;;;;;;;;5096919;28;20026;-30
2022/12/15 01:48:43;;;;;;;6.10;2.83;;;;;;;;;;5097426;28;20031;-30
2022/12/15 01:51:24;;;;;;;4.70;3.05;;;;;;;;;;5096839;28;20077;-31
2022/12/15 01:53:50;;;;;;;;;;;;;;;;;;5097215;28;20103;-31
2022/12/15 01:56:17;;;;;;;3.47;3.15;;;;;;;;;;5096732;28;20323;-31
2022/12/15 01:58:44;;;;;;;6.18;3.03;;;;;;;;;;5095775;28;20115;-30
2022/12/15 02:01:10;;;;;;;7.88;3.58;;;;;;;;;;5096568;28;20410;-30
2022/12/15 02:03:37;;;;;;;10.13;3.88;;;;;;;;;;5096325;28;20040;-30
2022/12/15 02:06:03;;;;;;;7.05;3.80;;;;;;;;;;5096800;28;20028;-30
2022/12/15 02:08:30;;;;;;;4.65;3.13;;;;;;;;;;5096760;28;20325;-31
2022/12/15 02:11:19;;;;;;;7.65;3.65;;;;;;;;;;5096452;28;20435;-31
2022/12/15 02:13:48;;;;;;;5.22;3.30;;;;;;;;;;5085963;28;20115;-30
2022/12/15 02:16:29;;;;;;;8.65;3.42;;;;;;;;;;5078520;28;20032;-31
2022/12/15 02:19:18;;;;;;;7.15;3.53;;;;;;;;;;5096590;28;20050;-31
2022/12/15 02:21:50;;;;;;;6.13;3.90;;;;;;;;;;5096456;28;20059;-30
2022/12/15 02:24:32;;;;;;;9.75;3.30;;;;;;;;;;5095622;28;20439;-30
2022/12/15 02:27:12;;;;;;;6.10;3.60;;;;;;;;;;5096707;28;20105;-31
2022/12/15 02:29:38;;;;;;;5.25;3.10;;;;;;;;;;5096127;28;20020;-31
2022/12/15 02:32:27;;;;;;;9.02;3.92;;;;;;;;;;5096183;28;20036;-31
2022/12/15 02:34:57;;;;;;;5.30;3.55;;;;;;;;;;5085736;28;20050;-31
2022/12/15 02:37:32;;;;;;;6.63;3.63;;;;;;;;;;5095915;28;20106;-31
2022/12/15 02:39:58;;;;;;;6.20;3.45;;;;;;;;;;5096164;28;20024;-31
2022/12/15 02:42:26;;;;;;;9.98;4.63;;;;;;;;;;5095926;28;20114;-32
2022/12/15 02:44:58;;;;;;;4.47;3.35;;;;;;;;;;5095786;28;20451;-30
2022/12/15 02:47:27;;;;;;;5.55;3.10;;;;;;;;;;5095734;28;20082;-30
2022/12/15 02:50:11;;;;;;;7.40;3.85;;;;;;;;;;5095705;28;20028;-32
2022/12/15 02:52:52;;;;;;;4.93;3.58;;;;;;;;;;5095572;28;20453;-31
2022/12/15 02:55:39;;;;;;;7.22;3.53;;;;;;;;;;5095606;28;20042;-31
2022/12/15 02:58:12;;;;;;;4.43;3.25;;;;;;;;;;5095572;28;20490;-31
2022/12/15 03:00:42;;;;;;;6.07;3.67;;;;;;;;;;5095748;28;20028;-30
2022/12/15 03:03:08;;;;;;;7.68;3.75;;;;;;;;;;5095328;28;20040;-31
2022/12/15 03:05:35;;;;;;;9.52;3.95;;;;;;;;;;5095943;28;20085;-30
2022/12/15 03:08:01;;;;;;;7.32;3.38;;;;;;;;;;5095639;28;20055;-31
2022/12/15 03:10:27;;;;;;;3.70;2.95;;;;;;;;;;5095356;28;20354;-31
2022/12/15 03:12:53;;;;;;;5.50;3.00;;;;;;;;;;5095267;28;20024;-31
2022/12/15 03:15:20;;;;;;;9.35;3.33;;;;;;;;;;5077423;28;20089;-31
2022/12/15 03:17:46;;;;;;;7.43;4.13;;;;;;;;;;5095217;28;20035;-31
2022/12/15 03:20:12;;;;;;;6.85;3.83;;;;;;;;;;5095165;28;20470;-31
2022/12/15 03:22:38;;;;;;;5.07;2.97;;;;;;;;;;5095262;28;20116;-31
2022/12/15 03:25:05;;;;;;;4.45;2.90;;;;;;;;;;5095127;28;20036;-31
2022/12/15 03:27:31;;;;;;;5.55;2.80;;;;;;;;;;5095359;28;20097;-30
2022/12/15 03:29:57;;;;;;;6.07;4.15;;;;;;;;;;5095069;28;20023;-31
2022/12/15 03:32:23;;;;;;;7.90;3.20;;;;;;;;;;5095475;28;20081;-30
2022/12/15 03:34:49;;;;;;;4.65;3.05;;;;;;;;;;5076329;28;20123;-31
2022/12/15 03:37:15;;;;;;;6.20;3.95;;;;;;;;;;5095456;28;20084;-31
2022/12/15 03:39:42;;;;;;;6.97;3.70;;;;;;;;;;5095157;28;20035;-31
2022/12/15 03:42:08;;;;;;;7.05;4.22;;;;;;;;;;5094720;28;20104;-30
2022/12/15 03:44:34;;;;;;;7.05;3.10;;;;;;;;;;5094829;28;20420;-30
2022/12/15 03:47:00;;;;;;;4.97;3.50;;;;;;;;;;5094805;28;20028;-31
2022/12/15 03:49:26;;;;;;;4.13;3.40;;;;;;;;;;5095090;28;20043;-31
2022/12/15 03:51:52;;;;;;;9.20;3.40;;;;;;;;;;5094676;28;20440;-30
2022/12/15 03:54:18;;;;;;;7.63;3.53;;;;;;;;;;5093887;28;20028;-30
2022/12/15 03:56:45;;;;;;;7.25;4.20;;;;;;;;;;5094654;28;20043;-30
2022/12/15 03:59:11;;;;;;;7.25;3.45;;;;;;;;;;5076908;28;20123;-30
2022/12/15 04:01:37;;;;;;;5.38;3.13;;;;;;;;;;5094613;28;20052;-30
2022/12/15 04:04:04;;;;;;;4.70;3.30;;;;;;;;;;5094369;28;20101;-30
2022/12/15 04:06:31;;;;;;;3.80;2.90;;;;;;;;;;5094264;28;20132;-30
2022/12/15 04:08:57;;;;;;;4.30;2.80;;;;;;;;;;5094869;28;20024;-29
2022/12/15 04:11:23;;;;;;;3.20;2.88;;;;;;;;;;5076822;28;20467;-30
2022/12/15 04:13:49;;;;;;;6.05;4.07;;;;;;;;;;5094450;28;20028;-30
2022/12/15 04:16:15;;;;;;;6.88;3.40;;;;;;;;;;5094815;28;20366;-31
2022/12/15 04:18:41;;;;;;;7.20;3.88;;;;;;;;;;5076695;28;20024;-31
2022/12/15 04:21:08;;;;;;;9.68;4.25;;;;;;;;;;5094390;28;20024;-30
2022/12/15 04:23:34;;;;;;;4.82;3.20;;;;;;;;;;5094407;28;20189;-31
2022/12/15 05:32:04;;;;;;;3.28;2.70;;;;;;;;;;5097373;28;20054;-30
2022/12/15 05:34:32;;;;;;;4.45;3.63;;;;;;;;;;5097300;28;20059;-30
2022/12/15 05:36:59;;;;;;;7.85;3.22;;;;;;;;;;5096935;28;20363;-31
2022/12/15 05:39:26;;;;;;;7.25;3.28;;;;;;;;;;5097140;28;20446;-31
2022/12/15 05:41:52;;;;;;;3.60;3.13;;;;;;;;;;5097185;28;20359;-31
2022/12/15 05:44:19;;;;;;;6.90;2.92;;;;;;;;;;5096149;28;20028;-32
2022/12/15 05:46:45;;;;;;;7.13;4.82;;;;;;;;;;5097093;28;20164;-31
2022/12/15 05:49:16;;;;;;;6.43;2.97;;;;;;;;;;5096811;28;20021;-32
2022/12/15 05:51:43;;;;;;;6.32;3.25;;;;;;;;;;5096609;28;20032;-32
2022/12/15 05:54:10;;;;;;;8.88;3.35;;;;;;;;;;5096460;28;20150;-32
2022/12/15 05:56:36;;;;;;;4.68;3.13;;;;;;;;;;5096660;28;20078;-31
2022/12/15 05:59:03;;;;;;;5.03;2.90;;;;;;;;;;5095486;28;20031;-32
2022/12/15 06:04:06;;;;;;;6.03;3.28;;;;;;;;;;5055143;22;20041;-31
2022/12/15 06:06:32;;;;;;;5.20;2.97;;;;;;;;;;5056402;28;20029;-31
2022/12/15 06:08:58;;;;;;;8.02;4.50;;;;;;;;;;5056045;28;20108;-32
2022/12/15 06:11:25;;;;;;;6.22;3.58;;;;;;;;;;5055033;28;20094;-32
2022/12/15 06:13:51;;;;;;;8.63;2.78;;;;;;;;;;5055943;28;20086;-31
2022/12/15 06:16:18;;;;;;;5.10;3.10;;;;;;;;;;5055911;28;20029;-33
2022/12/15 06:18:45;;;;;;;5.93;2.75;;;;;;;;;;5056301;28;20039;-31
2022/12/15 06:21:13;;;;;;;3.60;3.20;;;;;;;;;;5055849;28;20106;-32
2022/12/15 06:23:39;;;;;;;4.88;3.40;;;;;;;;;;5056380;28;20300;-31
2022/12/15 06:26:10;;;;;;;6.68;4.03;;;;;;;;;;5055594;28;20119;-31
2022/12/15 06:28:37;;;;;;;7.47;3.95;;;;;;;;;;5055975;28;20451;-31
2022/12/15 06:31:05;;;;;;;5.82;3.72;;;;;;;;;;5055850;28;20316;-32
2022/12/15 06:33:31;;;;;;;5.00;3.40;;;;;;;;;;5055501;28;20089;-32
2022/12/15 06:36:02;;;;;;;9.80;3.17;;;;;;;;;;5055552;28;20400;-31
2022/12/15 06:38:28;;;;;;;5.38;3.10;;;;;;;;;;5055883;28;20463;-31
2022/12/15 06:40:55;;;;;;;12.23;4.07;;;;;;;;;;5055365;28;20040;-32
2022/12/15 06:43:21;;;;;;;7.03;3.45;;;;;;;;;;5055603;28;20383;-32
2022/12/15 06:45:48;;;;;;;6.10;4.63;;;;;;;;;;5054399;28;20040;-32
2022/12/15 06:48:15;;;;;;;6.93;3.35;;;;;;;;;;5055130;28;20025;-33
2022/12/15 06:50:41;;;;;;;6.57;3.63;;;;;;;;;;5055439;28;20052;-31
2022/12/15 06:53:07;;;;;;;7.22;3.70;;;;;;;;;;5054858;28;20017;-31
2022/12/15 06:55:33;;;;;;;7.47;3.50;;;;;;;;;;5054326;28;20029;-31
2022/12/15 06:57:59;;;;;;;3.95;3.10;;;;;;;;;;5054814;28;20048;-31
2022/12/15 07:00:26;;;;;;;7.75;3.00;;;;;;;;;;5055013;28;20106;-32
2022/12/15 07:02:53;;;;;;;10.20;3.30;;;;;;;;;;5054397;28;20128;-31
2022/12/15 07:05:20;;;;;;;4.80;3.35;;;;;;;;;;5054783;28;20116;-32
2022/12/15 07:07:46;;;;;;;8.57;3.40;;;;;;;;;;5054650;28;20075;-31
2022/12/15 07:10:13;;;;;;;6.63;3.35;;;;;;;;;;5054584;28;20028;-31
2022/12/15 07:12:39;;;;;;;7.50;3.17;;;;;;;;;;5054577;28;20048;-32
2022/12/15 07:15:06;;;;;;;7.50;2.75;;;;;;;;;;5054588;28;20021;-31
2022/12/15 07:17:33;;;;;;;12.77;3.67;;;;;;;;;;5053689;28;20044;-31
2022/12/15 07:19:59;;;;;;;9.38;3.47;;;;;;;;;;5055007;28;20040;-32
2022/12/15 07:22:27;;;;;;;6.18;3.90;;;;;;;;;;5054591;28;20470;-32
2022/12/15 07:24:53;;;;;;;7.65;3.75;;;;;;;;;;5054571;28;20040;-31
2022/12/15 07:27:20;;;;;;;6.72;3.60;;;;;;;;;;5054866;28;20063;-32
2022/12/15 07:29:46;;;;;;;5.45;3.20;;;;;;;;;;5054643;28;20032;-32
2022/12/15 07:32:12;;;;;;;6.95;3.30;;;;;;;;;;5054464;28;20114;-32
2022/12/15 07:34:38;;;;;;;6.82;3.55;;;;;;;;;;5054733;28;20396;-31
2022/12/15 07:37:04;;;;;;;8.25;3.83;;;;;;;;;;5054996;28;20029;-32
2022/12/15 07:39:31;;;;;;;6.43;3.60;;;;;;;;;;5054345;28;20047;-33
2022/12/15 07:41:57;;;;;;;4.97;3.15;;;;;;;;;;5054201;28;20452;-32
2022/12/15 07:44:23;;;;;;;7.72;3.35;;;;;;;;;;5054449;28;20020;-31
2022/12/15 07:46:49;;;;;;;6.95;4.13;;;;;;;;;;5054710;28;20025;-30
2022/12/15 07:49:16;;;;;;;7.07;3.85;;;;;;;;;;5054327;28;20078;-31
2022/12/15 07:51:42;;;;;;;6.32;4.18;;;;;;;;;;5054050;28;20040;-31
2022/12/15 07:54:11;;;;;;;6.85;4.15;;;;;;;;;;5054156;28;20036;-32
2022/12/15 07:56:38;;;;;;;11.18;6.05;;;;;;;;;;5054027;28;20419;-31
2022/12/15 07:59:05;;;;;;;9.07;3.55;;;;;;;;;;5054195;28;20163;-31
2022/12/15 08:01:31;;;;;;;8.63;4.03;;;;;;;;;;5054348;28;20045;-31
2022/12/15 08:03:57;;;;;;;5.85;3.38;;;;;;;;;;5052788;28;20049;-31
2022/12/15 08:06:23;;;;;;;9.45;3.38;;;;;;;;;;5054028;28;20029;-32
2022/12/15 08:08:50;;;;;;;9.82;4.18;;;;;;;;;;5054281;28;20039;-32
2022/12/15 08:11:16;;;;;;;9.35;3.88;;;;;;;;;;5054184;28;20569;-31
2022/12/15 08:13:43;;;;;;;10.23;3.50;;;;;;;;;;5053938;28;20044;-31
2022/12/15 08:16:10;;;;;;;8.00;4.18;;;;;;;;;;5054147;28;20060;-31
2022/12/15 08:18:36;;;;;;;6.63;3.63;;;;;;;;;;5053879;28;20402;-31
2022/12/15 08:21:03;;;;;;;11.65;3.78;;;;;;;;;;5054106;28;20025;-32
2022/12/15 08:23:30;;;;;;;10.05;5.63;;;;;;;;;;5057026;28;20363;-30
2022/12/15 08:26:23;;;;;;;8.23;3.55;;;;;;;;;;5057915;28;20021;-31
2022/12/15 08:28:49;;;;;;;6.18;4.10;;;;;;;;;;5054898;28;20444;-31
2022/12/15 08:31:17;;;;;;;5.93;4.25;;;;;;;;;;5057039;28;20061;-30
2022/12/15 08:33:45;;;;;;;11.55;4.03;;;;;;;;;;5057352;28;20055;-31
2022/12/15 08:36:12;;;;;;;7.38;4.18;;;;;;;;;;5056356;28;20386;-31
2022/12/15 08:38:39;;;;;;;12.20;4.10;;;;;;;;;;5057650;28;20025;-32
2022/12/15 08:41:06;;;;;;;5.35;3.63;;;;;;;;;;5057336;28;20025;-31
2022/12/15 08:43:32;;;;;;;11.13;3.45;;;;;;;;;;5057307;28;20028;-31
2022/12/15 08:45:59;;;;;;;13.07;5.25;;;;;;;;;;5057434;28;20033;-31
2022/12/15 08:48:25;;;;;;;20.77;5.68;;;;;;;;;;5057654;28;20043;-32
2022/12/15 08:50:54;;;;;;;8.80;4.20;;;;;;;;;;5057533;28;20086;-32
2022/12/15 08:53:20;;;;;;;16.77;4.38;;;;;;;;;;5057830;28;20037;-33
2022/12/15 08:55:47;;;;;;;9.52;4.97;;;;;;;;;;5057030;28;20025;-32
2022/12/15 08:58:13;;;;;;;14.10;4.20;;;;;;;;;;5056966;28;20071;-31
2022/12/15 09:00:39;;;;;;;7.88;4.78;;;;;;;;;;5056974;28;20227;-32
2022/12/15 09:03:05;;;;;;;14.32;4.93;;;;;;;;;;5056787;28;20044;-32
2022/12/15 09:05:34;;;;;;;15.60;4.90;;;;;;;;;;5057466;28;20044;-31
2022/12/15 09:08:00;;;;;;;9.95;4.28;;;;;;;;;;5057132;28;20320;-32
2022/12/15 09:10:26;;;;;;;12.60;4.80;;;;;;;;;;5057296;28;20108;-32
2022/12/15 09:12:52;;;;;;;15.50;5.60;;;;;;;;;;5057195;28;20333;-31
2022/12/15 09:15:19;;;;;;;11.93;4.80;;;;;;;;;;5056757;28;20051;-31
2022/12/15 09:17:46;;;;;;;10.48;4.45;;;;;;;;;;5056744;28;20025;-31
2022/12/15 09:20:13;;;;;;;14.55;5.18;;;;;;;;;;5056881;28;20029;-32
2022/12/15 09:22:39;;;;;;;9.02;3.40;;;;;;;;;;5056501;28;20040;-31
2022/12/15 09:25:06;;;;;;;9.27;4.18;;;;;;;;;;5056889;28;20383;-31
2022/12/15 09:27:33;;;;;;;15.40;5.38;;;;;;;;;;5056564;28;20024;-32
2022/12/15 09:30:00;;;;;;;14.50;5.45;;;;;;;;;;5056543;28;20028;-31
2022/12/15 09:32:26;;;;;;;10.30;4.25;;;;;;;;;;5055466;28;20079;-32
2022/12/15 09:34:53;;;;;;;16.67;5.00;;;;;;;;;;5055880;28;20032;-32
2022/12/15 09:37:19;;;;;;;18.13;5.15;;;;;;;;;;5056746;28;20368;-31
2022/12/15 09:39:46;;;;;;;14.48;5.50;;;;;;;;;;5056435;28;20021;-31
2022/12/15 09:42:21;;;;;;;11.70;4.57;;;;;;;;;;5056265;28;20436;-31
2022/12/15 09:44:50;;;;;;;17.33;5.22;;;;;;;;;;5056406;28;20452;-31
2022/12/15 09:47:18;;;;;;;8.55;4.63;;;;;;;;;;5056397;28;20032;-31
2022/12/15 09:50:04;;;;;;;21.83;4.55;;;;;;;;;;5056230;28;20025;-31
2022/12/15 09:52:43;;;;;;;10.00;3.58;;;;;;;;;;5056445;28;20056;-32
2022/12/15 09:55:20;;;;;;;9.73;4.28;;;;;;;;;;5056535;28;20090;-32
2022/12/15 09:57:49;;;;;;;5.78;3.75;;;;;;;;;;5056483;28;20108;-33
2022/12/15 10:00:20;;;;;;;7.00;3.80;;;;;;;;;;5055086;28;20033;-32
2022/12/15 10:03:01;;;;;;;7.38;3.97;;;;;;;;;;5055860;28;20037;-32
2022/12/15 10:05:27;;;;;;;;;;;;;;;;;;5056528;28;20037;-32
2022/12/15 10:07:53;;;;;;;12.88;5.90;;;;;;;;;;5056061;28;19909;-31
2022/12/15 10:10:41;;;;;;;9.63;4.38;;;;;;;;;;5056109;28;20021;-31
2022/12/15 10:13:17;;;;;;;8.35;3.95;;;;;;;;;;5055939;28;20467;-31
2022/12/15 10:15:51;;;;;;;11.48;6.07;;;;;;;;;;5055887;28;20147;-32
2022/12/15 10:18:22;;;;;;;17.90;6.00;;;;;;;;;;5054839;28;20465;-32
2022/12/15 10:20:48;;;;;;;14.75;6.05;;;;;;;;;;5055759;28;20048;-32
2022/12/15 10:23:16;;;;;;;11.43;5.72;;;;;;;;;;5054687;28;20021;-30
2022/12/15 10:25:50;;;;;;;17.33;6.03;;;;;;;;;;5055701;28;20021;-33
2022/12/15 10:28:19;;;;;;;19.98;5.65;;;;;;;;;;5056140;28;20043;-31
2022/12/15 10:30:59;;;;;;;13.77;5.03;;;;;;;;;;5055493;28;20017;-32
2022/12/15 10:33:26;;;;;;;19.30;6.25;;;;;;;;;;5055650;28;20356;-32
2022/12/15 10:35:54;;;;;;;17.15;4.88;;;;;;;;;;5055604;28;20027;-31
2022/12/15 10:38:25;;;;;;;28.23;5.88;;;;;;;;;;5055414;28;20025;-31
2022/12/15 10:40:54;;;;;;;18.63;6.10;;;;;;;;;;5055331;28;20463;-32
2022/12/15 10:43:33;;;;;;;13.95;5.93;;;;;;;;;;5055300;28;20448;-32
2022/12/15 10:46:04;;;;;;;16.08;5.25;;;;;;;;;;5055321;28;20028;-31
2022/12/15 10:48:30;;;;;;;13.30;5.07;;;;;;;;;;5055603;28;20375;-31
2022/12/15 10:51:26;;;;;;;10.93;5.50;;;;;;;;;;5055820;28;20029;-30
2022/12/15 10:53:54;;;;;;;12.75;5.07;;;;;;;;;;5042527;28;20048;-31
2022/12/15 10:56:21;;;;;;;11.18;4.53;;;;;;;;;;5055698;28;20336;-31
2022/12/15 10:58:52;;;;;;;16.08;6.20;;;;;;;;;;5055158;28;20025;-31
2022/12/15 11:01:20;;;;;;;7.73;4.33;;;;;;;;;;5055135;28;20025;-31
2022/12/15 11:03:50;;;;;;;7.95;5.13;;;;;;;;;;5054635;28;20622;-32
2022/12/15 11:06:20;;;;;;;10.93;4.70;;;;;;;;;;5055296;28;20471;-32
2022/12/15 11:08:47;;;;;;;10.00;4.47;;;;;;;;;;5054765;28;20029;-34
2022/12/15 11:14:22;;;;;;;13.75;5.03;;;;;;;;;;5055274;28;20040;-34
2022/12/15 11:16:50;;;;;;;16.42;5.45;;;;;;;;;;5054746;28;20036;-31
2022/12/15 11:19:26;;;;;;;11.60;4.25;;;;;;;;;;5054891;28;20480;-31
2022/12/15 11:21:58;;;;;;;7.35;4.20;;;;;;;;;;5054177;28;20061;-31
2022/12/15 11:24:44;;;;;;;13.50;4.63;;;;;;;;;;5055021;28;20345;-32
2022/12/15 11:27:38;;;;;;;11.52;5.30;;;;;;;;;;5054543;28;20140;-33
2022/12/15 11:30:21;;;;;;;12.50;4.55;;;;;;;;;;5051989;28;20045;-33
2022/12/15 11:32:52;;;;;;;15.98;5.38;;;;;;;;;;5054816;28;20051;-32
2022/12/15 11:35:38;;;;;;;10.63;4.25;;;;;;;;;;5054553;28;20483;-31
2022/12/15 11:38:04;;;;;;;16.27;5.28;;;;;;;;;;5044339;28;20410;-32
2022/12/15 11:40:37;;;;;;;16.30;3.92;;;;;;;;;;5054580;28;20100;-32
2022/12/15 11:43:22;;;;;;;11.18;4.32;;;;;;;;;;5054530;28;20474;-33
2022/12/15 11:46:06;;;;;;;8.80;4.40;;;;;;;;;;5054612;28;20021;-31
2022/12/15 11:48:42;;;;;;;8.07;4.13;;;;;;;;;;5054243;28;20033;-31
2022/12/15 11:51:08;;;;;;;11.90;4.20;;;;;;;;;;5054329;28;20058;-32
2022/12/15 11:53:37;;;;;;;14.27;4.68;;;;;;;;;;5054058;28;20100;-33
2022/12/15 11:56:18;;;;;;;13.27;4.63;;;;;;;;;;5053651;28;20074;-31
2022/12/15 11:58:59;;;;;;;7.50;4.37;;;;;;;;;;5053094;28;20495;-31
2022/12/15 12:01:37;;;;;;;11.80;4.70;;;;;;;;;;5054079;28;20279;-32
2022/12/15 12:04:12;;;;;;;9.43;4.35;;;;;;;;;;5053894;28;20073;-31
2022/12/15 12:06:57;;;;;;;9.40;4.78;;;;;;;;;;5054738;28;20100;-32
2022/12/15 12:09:39;;;;;;;12.98;6.18;;;;;;;;;;5054774;28;20021;-31
2022/12/15 12:12:15;;;;;;;15.00;4.47;;;;;;;;;;5054332;28;20025;-31
2022/12/15 12:14:41;;;;;;;15.00;4.78;;;;;;;;;;5053079;28;20064;-30
2022/12/15 12:17:22;;;;;;;15.98;4.35;;;;;;;;;;5054343;28;20079;-32
2022/12/15 12:19:52;;;;;;;10.27;4.60;;;;;;;;;;5054288;28;20108;-32
2022/12/15 12:22:26;;;;;;;16.35;6.07;;;;;;;;;;5054078;28;20028;-32
2022/12/15 12:24:59;;;;;;;15.02;4.70;;;;;;;;;;5053747;28;20028;-33
2022/12/15 12:27:48;;;;;;;16.58;4.75;;;;;;;;;;5053873;28;20082;-32
2022/12/15 12:30:21;;;;;;;15.43;4.63;;;;;;;;;;5053812;28;20109;-32
2022/12/15 12:32:53;;;;;;;8.85;4.47;;;;;;;;;;5053962;28;20025;-31
2022/12/15 12:35:20;;;;;;;13.05;4.25;;;;;;;;;;5054304;28;20028;-31
2022/12/15 12:37:46;;;;;;;7.50;4.30;;;;;;;;;;5053643;28;20367;-31
2022/12/15 12:40:22;;;;;;;8.95;5.80;;;;;;;;;;5053671;28;20368;-31
2022/12/15 12:42:48;;;;;;;15.02;4.18;;;;;;;;;;5053705;28;20029;-30
2022/12/15 12:45:16;;;;;;;13.88;5.65;;;;;;;;;;5054496;28;20448;-32
2022/12/15 12:47:46;;;;;;;16.70;4.90;;;;;;;;;;5053587;28;20091;-30
2022/12/15 12:50:18;;;;;;;11.50;4.60;;;;;;;;;;5054026;28;20341;-30
2022/12/15 12:52:51;;;;;;;17.25;5.70;;;;;;;;;;5053634;28;20475;-31
2022/12/15 12:55:25;;;;;;;16.27;4.45;;;;;;;;;;5053605;28;20033;-31
2022/12/15 12:57:51;;;;;;;20.50;4.55;;;;;;;;;;5054082;28;20029;-32
2022/12/15 13:00:19;;;;;;;15.02;5.18;;;;;;;;;;5054273;28;20036;-31
2022/12/15 13:03:09;;;;;;;11.15;4.32;;;;;;;;;;5053092;28;20045;-32
2022/12/15 13:05:36;;;;;;;18.08;5.43;;;;;;;;;;5046126;28;20106;-32
2022/12/15 13:08:05;;;;;;;13.43;4.38;;;;;;;;;;5055630;28;20190;-31
2022/12/15 13:10:33;;;;;;;19.35;6.68;;;;;;;;;;5057213;28;20052;-33
2022/12/15 13:13:17;;;;;;;17.50;4.65;;;;;;;;;;5057042;28;20033;-32
2022/12/15 13:15:47;;;;;;;16.02;3.88;;;;;;;;;;5057289;28;20032;-32
2022/12/15 13:18:21;;;;;;;15.32;4.97;;;;;;;;;;5056996;28;20064;-32
2022/12/15 13:20:49;;;;;;;15.18;4.45;;;;;;;;;;5057180;28;20094;-31
2022/12/15 13:23:21;;;;;;;12.73;4.15;;;;;;;;;;5056865;28;20456;-32
2022/12/15 13:25:53;;;;;;;16.98;4.43;;;;;;;;;;5055875;28;20434;-30
2022/12/15 13:28:34;;;;;;;22.63;4.47;;;;;;;;;;5057137;28;20033;-32
2022/12/15 13:31:16;;;;;;;21.90;5.10;;;;;;;;;;5056837;28;20056;-32
2022/12/15 13:33:51;;;;;;;9.15;4.68;;;;;;;;;;5057019;28;20447;-33
2022/12/15 13:36:37;;;;;;;11.57;4.47;;;;;;;;;;5056754;28;20040;-31
2022/12/15 13:39:05;;;;;;;14.32;4.65;;;;;;;;;;5046574;28;20033;-31
2022/12/15 13:41:32;;;;;;;18.27;4.93;;;;;;;;;;5056509;28;20098;-31
2022/12/15 13:43:58;;;;;;;10.25;4.43;;;;;;;;;;5056501;28;20417;-31
2022/12/15 13:46:25;;;;;;;11.35;5.18;;;;;;;;;;5056562;28;20029;-31
2022/12/15 13:49:10;;;;;;;24.75;4.68;;;;;;;;;;5056438;28;20041;-32
2022/12/15 13:51:43;;;;;;;9.65;4.05;;;;;;;;;;5056468;28;20060;-32
2022/12/15 13:54:18;;;;;;;11.85;4.05;;;;;;;;;;5056345;28;20036;-30
2022/12/15 13:57:03;;;;;;;11.27;4.50;;;;;;;;;;5056332;28;20141;-31
2022/12/15 13:59:29;;;;;;;14.77;4.43;;;;;;;;;;5055294;28;20029;-31
2022/12/15 14:01:55;;;;;;;17.85;4.72;;;;;;;;;;5056306;28;20055;-31
2022/12/15 14:04:22;;;;;;;8.10;4.95;;;;;;;;;;5054997;28;20116;-30
2022/12/15 14:07:01;;;;;;;18.58;4.80;;;;;;;;;;5056050;28;20106;-32
2022/12/15 14:09:29;;;;;;;7.78;3.80;;;;;;;;;;5056197;28;20039;-30
2022/12/15 14:11:55;;;;;;;9.98;4.13;;;;;;;;;;5055992;28;20028;-31
2022/12/15 14:14:24;;;;;;;10.30;3.80;;;;;;;;;;5056345;28;20033;-32
2022/12/15 14:17:01;;;;;;;8.50;5.07;;;;;;;;;;5056227;28;20391;-32
2022/12/15 14:19:35;;;;;;;9.85;3.78;;;;;;;;;;5055824;28;20473;-32
2022/12/15 14:22:01;;;;;;;8.27;4.05;;;;;;;;;;5055672;28;20041;-32
2022/12/15 14:24:29;;;;;;;7.82;4.20;;;;;;;;;;5055844;28;20116;-31
2022/12/15 14:26:56;;;;;;;6.03;4.53;;;;;;;;;;5054850;28;20025;-31
2022/12/15 14:29:22;;;;;;;11.43;4.90;;;;;;;;;;5055979;28;20380;-32
2022/12/15 14:31:50;;;;;;;11.40;4.97;;;;;;;;;;5056004;28;20048;-31
2022/12/15 14:34:19;;;;;;;11.90;4.53;;;;;;;;;;5055935;28;20455;-32
2022/12/15 14:36:49;;;;;;;15.73;3.92;;;;;;;;;;5055905;28;20037;-31
2022/12/15 14:39:35;;;;;;;11.95;4.60;;;;;;;;;;5055567;28;20442;-32
2022/12/15 14:42:02;;;;;;;12.18;4.85;;;;;;;;;;5055154;28;20040;-31
2022/12/15 14:44:33;;;;;;;12.50;4.30;;;;;;;;;;5054484;28;20033;-31
2022/12/15 14:47:01;;;;;;;10.65;4.15;;;;;;;;;;5055884;28;20021;-31
2022/12/15 14:49:41;;;;;;;10.23;4.22;;;;;;;;;;5054818;28;20082;-31
2022/12/15 14:52:14;;;;;;;12.32;4.43;;;;;;;;;;5055804;28;20422;-30
2022/12/15 14:54:50;;;;;;;9.27;5.05;;;;;;;;;;5054619;28;20025;-30
2022/12/15 14:57:20;;;;;;;14.45;4.40;;;;;;;;;;5055416;28;20452;-30
2022/12/15 14:59:56;;;;;;;13.50;7.00;;;;;;;;;;5055452;28;20574;-32
2022/12/15 15:02:22;;;;;;;11.50;4.45;;;;;;;;;;5055021;28;20459;-31
2022/12/15 15:05:17;;;;;;;5.07;3.03;;;;;;;;;;5055363;28;20029;-31
2022/12/15 15:07:45;;;;;;;8.18;3.95;;;;;;;;;;5042492;28;20037;-31
2022/12/15 15:10:22;;;;;;;9.93;4.38;;;;;;;;;;5055102;28;20032;-31
2022/12/15 15:12:48;;;;;;;12.73;4.13;;;;;;;;;;5054729;28;20364;-32
2022/12/15 15:15:16;;;;;;;10.38;4.00;;;;;;;;;;5054738;28;20024;-32
2022/12/15 15:17:44;;;;;;;15.65;4.15;;;;;;;;;;5054968;28;20059;-31
2022/12/15 15:20:16;;;;;;;9.18;4.20;;;;;;;;;;5054700;28;20036;-32
2022/12/15 15:22:44;;;;;;;15.35;4.15;;;;;;;;;;5053560;28;20033;-31
2022/12/15 15:25:40;;;;;;;18.83;4.35;;;;;;;;;;5054781;28;20027;-31
2022/12/15 15:28:20;;;;;;;10.88;3.88;;;;;;;;;;5042236;28;20041;-32
2022/12/15 15:30:54;;;;;;;8.43;4.13;;;;;;;;;;5054873;28;20021;-31
2022/12/15 15:33:21;;;;;;;16.60;3.70;;;;;;;;;;5054629;28;20270;-32
2022/12/15 15:35:52;;;;;;;7.40;4.65;;;;;;;;;;5054841;28;20456;-31
2022/12/15 15:38:31;;;;;;;10.10;4.25;;;;;;;;;;5054564;28;20025;-32
2022/12/15 15:40:59;;;;;;;10.85;4.18;;;;;;;;;;5054717;28;20440;-32
2022/12/15 15:43:26;;;;;;;9.50;3.85;;;;;;;;;;5054968;28;20032;-31
2022/12/15 15:45:59;;;;;;;10.57;4.07;;;;;;;;;;5054638;28;20094;-31
2022/12/15 15:48:28;;;;;;;6.50;4.22;;;;;;;;;;5053435;28;20367;-32
2022/12/15 15:50:54;;;;;;;11.02;3.80;;;;;;;;;;5054745;28;20029;-31
2022/12/15 15:53:22;;;;;;;11.60;5.40;;;;;;;;;;5054229;28;20029;-31
2022/12/15 15:55:49;;;;;;;6.95;4.00;;;;;;;;;;5054246;28;20029;-32
2022/12/15 15:58:15;;;;;;;9.23;3.03;;;;;;;;;;5054225;28;20024;-30
2022/12/15 16:00:42;;;;;;;11.05;5.22;;;;;;;;;;5054084;28;20033;-30
2022/12/15 16:03:08;;;;;;;11.77;3.08;;;;;;;;;;5053923;28;20404;-30
2022/12/15 16:05:35;;;;;;;7.78;4.00;;;;;;;;;;5054077;28;20460;-31
2022/12/15 16:08:02;;;;;;;16.77;4.32;;;;;;;;;;5054422;28;20324;-31
2022/12/15 16:10:28;;;;;;;13.18;4.38;;;;;;;;;;5054432;28;20107;-32
2022/12/15 16:12:55;;;;;;;16.20;4.03;;;;;;;;;;5053920;28;20062;-30
2022/12/15 16:15:24;;;;;;;8.45;4.30;;;;;;;;;;5054358;28;20052;-30
2022/12/15 16:17:51;;;;;;;8.98;4.28;;;;;;;;;;5054149;28;20032;-32
2022/12/15 16:20:17;;;;;;;9.77;4.03;;;;;;;;;;5054517;28;20056;-31
2022/12/15 16:22:45;;;;;;;14.48;4.38;;;;;;;;;;5052959;28;20037;-30
2022/12/15 16:25:17;;;;;;;9.13;3.63;;;;;;;;;;5054039;28;20025;-31
2022/12/15 16:27:43;;;;;;;14.30;4.38;;;;;;;;;;5053969;28;20057;-30
2022/12/15 16:30:21;;;;;;;8.40;4.10;;;;;;;;;;5054489;28;20029;-30
2022/12/15 16:32:47;;;;;;;12.90;4.05;;;;;;;;;;5052947;28;20452;-31
2022/12/15 16:35:14;;;;;;;9.13;3.75;;;;;;;;;;5054237;28;20110;-31
2022/12/15 16:37:45;;;;;;;6.05;4.35;;;;;;;;;;5053910;28;20029;-31
2022/12/15 16:40:15;;;;;;;7.95;3.78;;;;;;;;;;5052912;28;20120;-30
2022/12/15 16:42:41;;;;;;;7.65;3.83;;;;;;;;;;5055107;28;20185;-31
2022/12/15 16:45:17;;;;;;;11.02;4.72;;;;;;;;;;5057623;28;20036;-32
2022/12/15 16:47:46;;;;;;;8.52;4.70;;;;;;;;;;5057619;28;20029;-30
2022/12/15 16:50:14;;;;;;;11.85;4.40;;;;;;;;;;5056584;28;20528;-30
2022/12/15 16:52:41;;;;;;;6.80;3.45;;;;;;;;;;5057717;28;20464;-32
2022/12/15 16:55:10;;;;;;;12.50;5.00;;;;;;;;;;5057317;28;20040;-32
2022/12/15 16:57:36;;;;;;;6.15;3.20;;;;;;;;;;5057547;28;20029;-31
2022/12/15 17:00:02;;;;;;;6.10;3.83;;;;;;;;;;5057857;28;20029;-31
2022/12/15 17:02:28;;;;;;;10.20;4.25;;;;;;;;;;5056840;28;20033;-31
2022/12/15 17:04:55;;;;;;;4.93;3.65;;;;;;;;;;5057244;28;20017;-32
2022/12/15 17:07:21;;;;;;;9.32;3.75;;;;;;;;;;5057722;28;20029;-32
2022/12/15 17:09:51;;;;;;;8.43;4.38;;;;;;;;;;5057496;28;20402;-32
2022/12/15 17:12:17;;;;;;;13.55;4.95;;;;;;;;;;5057236;28;20112;-31
2022/12/15 17:14:44;;;;;;;8.18;4.03;;;;;;;;;;5057070;28;20289;-31